createdAt,value
2022-11-03T00:02:27.088Z,100452.13
2022-11-03T00:05:00.257Z,100416.13
2022-11-03T00:07:29.084Z,100420.19
2022-11-03T00:10:04.994Z,100464.06
2022-11-03T00:12:36.587Z,100434.31
2022-11-03T00:15:07.183Z,100431.41
2022-11-03T00:17:35.342Z,100423.66
2022-11-03T00:20:04.399Z,100416.91
2022-11-03T00:22:33.791Z,100433.59
2022-11-03T00:25:03.113Z,100416.69
2022-11-03T00:27:31.429Z,100425.16
2022-11-03T00:29:59.514Z,100435.44
2022-11-03T00:32:29.739Z,100391.81
2022-11-03T00:34:58.290Z,100384.16
2022-11-03T00:37:30.550Z,100406.41
2022-11-03T00:40:03.446Z,100392.94
2022-11-03T00:42:35.573Z,100386.38
2022-11-03T00:45:03.741Z,100408.03
2022-11-03T00:47:55.989Z,100425.13
2022-11-03T00:50:27.138Z,100400.72
2022-11-03T00:52:57.423Z,100370.28
2022-11-03T00:55:28.900Z,100433.50
2022-11-03T00:57:58.355Z,100419.09
2022-11-03T01:00:26.448Z,100383.94
2022-11-03T01:02:57.269Z,100415.03
2022-11-03T01:05:57.567Z,100334.75
2022-11-03T01:08:28.119Z,100377.22
2022-11-03T01:11:14.591Z,100393.97
2022-11-03T01:13:43.242Z,100331.03
2022-11-03T01:16:11.342Z,100328.38
2022-11-03T01:18:41.185Z,100360.06
2022-11-03T01:21:10.124Z,100336.91
2022-11-03T01:23:40.739Z,100340.97
2022-11-03T01:26:10.398Z,100313.66
2022-11-03T01:28:40.256Z,100348.94
2022-11-03T01:31:10.466Z,100329.16
2022-11-03T01:33:39.541Z,100363.88
2022-11-03T01:36:11.259Z,100363.88
2022-11-03T01:38:41.409Z,100327.53
2022-11-03T01:41:12.293Z,100320.94
2022-11-03T01:43:41.798Z,100330.19
2022-11-03T01:46:17.281Z,100328.00
2022-11-03T01:48:48.573Z,100350.78
2022-11-03T01:51:25.219Z,100319.88
2022-11-03T01:53:58.537Z,100276.88
2022-11-03T01:56:28.479Z,100285.44
2022-11-03T01:59:00.691Z,100299.06
2022-11-03T02:01:30.080Z,100277.44
2022-11-03T02:04:03.140Z,100310.16
2022-11-03T02:06:33.441Z,100316.97
2022-11-03T02:09:07.046Z,100323.59
2022-11-03T02:11:54.301Z,100308.31
2022-11-03T02:14:27.440Z,100278.94
2022-11-03T02:16:59.791Z,100255.34
2022-11-03T02:19:35.153Z,100288.50
2022-11-03T02:22:10.902Z,100323.66
2022-11-03T02:24:54.222Z,100264.19
2022-11-03T02:27:28.148Z,100271.03
2022-11-03T02:29:58.198Z,100303.94
2022-11-03T02:32:30.589Z,100243.50
2022-11-03T02:35:07.625Z,100255.03
2022-11-03T02:37:38.976Z,100292.50
2022-11-03T02:40:14.187Z,100248.09
2022-11-03T02:42:48.653Z,100274.00
2022-11-03T02:45:21.921Z,100211.66
2022-11-03T02:47:52.524Z,100247.81
2022-11-03T02:50:30.142Z,100221.56
2022-11-03T02:52:59.122Z,100218.91
2022-11-03T02:55:38.598Z,100251.25
2022-11-03T02:58:18.873Z,100220.94
2022-11-03T03:00:53.384Z,100236.06
2022-11-03T03:03:28.624Z,100169.13
2022-11-03T03:06:04.321Z,100169.38
2022-11-03T03:08:34.766Z,100214.31
2022-11-03T03:11:07.532Z,100225.31
2022-11-03T03:13:37.974Z,100180.38
2022-11-03T03:16:15.200Z,100169.97
2022-11-03T03:18:50.690Z,100215.66
2022-11-03T03:21:24.178Z,100155.81
2022-11-03T03:24:00.585Z,100189.28
2022-11-03T03:26:34.934Z,100156.50
2022-11-03T03:29:13.554Z,100216.00
2022-11-03T03:31:48.034Z,100149.22
2022-11-03T03:34:34.757Z,100147.03
2022-11-03T03:37:07.227Z,100151.34
2022-11-03T03:39:40.947Z,100212.28
2022-11-03T03:42:13.189Z,100137.75
2022-11-03T03:44:47.031Z,100197.34
2022-11-03T03:47:26.510Z,100156.69
2022-11-03T03:49:57.123Z,100185.63
2022-11-03T03:52:25.705Z,100190.16
2022-11-03T03:54:54.746Z,100151.53
2022-11-03T03:57:26.016Z,100110.09
2022-11-03T03:59:56.318Z,100150.22
2022-11-03T04:02:24.902Z,100109.03
2022-11-03T04:04:53.436Z,100151.63
2022-11-03T04:07:43.772Z,100107.75
2022-11-03T04:10:12.929Z,100162.19
2022-11-03T04:13:00.360Z,100118.91
2022-11-03T04:15:48.461Z,100085.88
2022-11-03T04:18:35.961Z,100127.09
2022-11-03T04:21:22.310Z,100122.78
2022-11-03T04:23:50.899Z,100142.75
2022-11-03T04:26:23.059Z,100129.31
2022-11-03T04:28:52.374Z,100081.75
2022-11-03T04:31:23.436Z,100117.06
2022-11-03T04:33:52.425Z,100105.44
2022-11-03T04:36:27.358Z,100101.47
2022-11-03T04:38:55.937Z,100092.28
2022-11-03T04:41:27.187Z,100092.13
2022-11-03T04:43:56.735Z,100053.34
2022-11-03T04:46:29.045Z,100073.84
2022-11-03T04:49:00.791Z,100047.78
2022-11-03T04:51:33.149Z,100056.34
2022-11-03T04:54:06.121Z,100071.78
2022-11-03T04:56:36.352Z,100100.09
2022-11-03T04:59:04.699Z,100043.97
2022-11-03T05:01:37.538Z,100062.97
2022-11-03T05:04:12.943Z,100048.03
2022-11-03T05:06:42.786Z,100030.34
2022-11-03T05:09:17.575Z,100067.56
2022-11-03T05:11:50.107Z,100029.16
2022-11-03T05:14:22.290Z,100010.28
2022-11-03T05:16:54.529Z,100060.13
2022-11-03T05:19:26.341Z,100002.91
2022-11-03T05:21:59.712Z,100049.16
2022-11-03T05:24:28.876Z,100010.09
2022-11-03T05:27:00.770Z,100047.84
2022-11-03T05:29:34.600Z,100030.75
2022-11-03T05:32:04.945Z,100006.06
2022-11-03T05:34:37.663Z,99997.25
2022-11-03T05:37:26.398Z,99985.72
2022-11-03T05:39:57.863Z,99977.41
2022-11-03T05:42:34.511Z,99983.63
2022-11-03T05:45:06.444Z,99950.84
2022-11-03T05:47:39.482Z,100001.50
2022-11-03T05:50:20.539Z,99936.19
2022-11-03T05:52:50.795Z,99970.78
2022-11-03T05:55:31.733Z,99998.63
2022-11-03T05:58:01.984Z,99949.97
2022-11-03T06:00:35.406Z,99933.25
2022-11-03T06:03:07.164Z,99966.63
2022-11-03T06:05:36.655Z,99968.72
2022-11-03T06:08:18.351Z,99900.25
2022-11-03T06:10:52.828Z,99961.53
2022-11-03T06:13:25.952Z,99887.78
2022-11-03T06:15:59.901Z,99899.91
2022-11-03T06:18:34.382Z,99902.09
2022-11-03T06:21:09.856Z,99880.59
2022-11-03T06:23:39.721Z,99898.84
2022-11-03T06:26:17.909Z,99940.47
2022-11-03T06:28:47.250Z,99880.50
2022-11-03T06:31:23.395Z,99870.66
2022-11-03T06:33:54.415Z,99913.69
2022-11-03T06:36:24.865Z,99892.44
2022-11-03T06:38:57.121Z,99907.25
2022-11-03T06:41:28.234Z,99891.59
2022-11-03T06:43:57.555Z,99859.16
2022-11-03T06:46:27.436Z,99895.66
2022-11-03T06:48:59.696Z,99930.06
2022-11-03T06:51:30.625Z,99926.44
2022-11-03T06:54:01.355Z,99912.69
2022-11-03T06:56:33.369Z,99912.69
2022-11-03T06:59:02.584Z,99948.94
2022-11-03T07:01:35.393Z,99913.31
2022-11-03T07:04:15.222Z,99918.88
2022-11-03T07:06:53.033Z,99883.47
2022-11-03T07:10:01.486Z,99937.25
2022-11-03T07:12:30.042Z,99923.53
2022-11-03T07:14:59.943Z,99925.16
2022-11-03T07:17:28.826Z,99912.88
2022-11-03T07:20:00.773Z,99927.41
2022-11-03T07:22:29.381Z,99926.03
2022-11-03T07:25:02.181Z,99896.59
2022-11-03T07:27:33.117Z,99918.34
2022-11-03T07:30:12.813Z,99907.31
2022-11-03T07:32:41.155Z,99903.97
2022-11-03T07:35:53.190Z,99889.59
2022-11-03T07:38:24.117Z,99885.00
2022-11-03T07:40:54.144Z,99834.81
2022-11-03T07:43:26.803Z,99884.78
2022-11-03T07:45:56.188Z,99814.97
2022-11-03T07:48:28.283Z,99879.91
2022-11-03T07:51:00.768Z,99859.16
2022-11-03T07:53:37.971Z,99824.66
2022-11-03T07:56:16.845Z,99839.78
2022-11-03T07:58:45.240Z,99828.00
2022-11-03T08:01:24.313Z,99863.19
2022-11-03T08:03:53.166Z,99857.00
2022-11-03T08:06:22.773Z,99802.84
2022-11-03T08:08:50.681Z,99836.69
2022-11-03T08:11:21.034Z,99856.81
2022-11-03T08:13:51.704Z,99844.81
2022-11-03T08:16:21.786Z,99828.56
2022-11-03T08:18:49.783Z,99791.28
2022-11-03T08:21:18.296Z,99822.75
2022-11-03T08:23:48.008Z,99820.63
2022-11-03T08:26:16.145Z,99783.41
2022-11-03T08:28:44.240Z,99787.22
2022-11-03T08:31:13.319Z,99796.94
2022-11-03T08:33:41.860Z,99746.28
2022-11-03T08:36:10.694Z,99750.13
2022-11-03T08:38:38.826Z,99764.91
2022-11-03T08:41:08.260Z,99769.25
2022-11-03T08:43:36.514Z,99722.06
2022-11-03T08:46:15.462Z,99729.59
2022-11-03T08:48:47.374Z,99741.53
2022-11-03T08:51:16.488Z,99737.22
2022-11-03T08:53:44.631Z,99735.88
2022-11-03T08:56:17.964Z,99731.13
2022-11-03T08:58:47.260Z,99682.94
2022-11-03T09:01:15.822Z,99725.78
2022-11-03T09:03:45.869Z,99701.94
2022-11-03T09:06:13.915Z,99700.34
2022-11-03T09:11:31.457Z,99698.53
2022-11-03T09:14:00.585Z,99690.25
2022-11-03T09:16:28.605Z,99678.00
2022-11-03T09:18:56.421Z,99632.44
2022-11-03T09:21:24.558Z,99609.00
2022-11-03T09:23:52.581Z,99634.66
2022-11-03T09:26:20.539Z,99662.28
2022-11-03T09:28:50.757Z,99646.03
2022-11-03T09:31:18.779Z,99647.50
2022-11-03T09:33:46.848Z,99592.09
2022-11-03T09:36:14.966Z,99614.28
2022-11-03T09:38:42.846Z,99602.84
2022-11-03T09:41:26.603Z,99636.06
2022-11-03T09:43:59.005Z,99636.94
2022-11-03T09:46:28.386Z,99634.81
2022-11-03T09:48:57.281Z,99635.91
2022-11-03T09:51:27.692Z,99598.53
2022-11-03T09:53:59.302Z,99625.06
2022-11-03T09:56:28.373Z,99577.91
2022-11-03T09:59:01.132Z,99622.66
2022-11-03T10:01:29.788Z,99615.19
2022-11-03T10:04:01.756Z,99600.50
2022-11-03T10:06:31.241Z,99610.16
2022-11-03T10:08:59.161Z,99601.38
2022-11-03T10:11:27.088Z,99574.59
2022-11-03T10:13:59.289Z,99586.44
2022-11-03T10:16:27.889Z,99587.81
2022-11-03T10:18:56.614Z,99563.50
2022-11-03T10:21:28.457Z,99559.50
2022-11-03T10:23:56.425Z,99544.03
2022-11-03T10:26:25.081Z,99526.94
2022-11-03T10:29:01.767Z,99539.81
2022-11-03T10:31:37.515Z,99559.06
2022-11-03T10:34:06.108Z,99519.00
2022-11-03T10:36:36.058Z,99526.25
2022-11-03T10:39:26.986Z,99550.00
2022-11-03T10:41:59.610Z,99583.19
2022-11-03T10:44:31.274Z,99550.84
2022-11-03T10:47:00.497Z,99552.75
2022-11-03T10:49:30.218Z,99510.31
2022-11-03T10:52:09.736Z,99547.44
2022-11-03T10:54:38.231Z,99511.94
2022-11-03T10:57:06.483Z,99504.22
2022-11-03T10:59:38.803Z,99494.63
2022-11-03T11:02:17.035Z,99500.75
2022-11-03T11:04:46.186Z,99451.09
2022-11-03T11:07:24.920Z,99466.84
2022-11-03T11:09:53.707Z,99468.44
2022-11-03T11:12:24.924Z,99456.19
2022-11-03T11:14:56.861Z,99466.59
2022-11-03T11:17:49.765Z,99467.13
2022-11-03T11:20:32.676Z,99459.94
2022-11-03T11:23:46.404Z,99478.09
2022-11-03T11:26:33.860Z,99456.22
2022-11-03T11:29:44.938Z,99456.47
2022-11-03T11:32:53.043Z,99446.03
2022-11-03T11:36:12.105Z,99438.84
2022-11-03T11:38:57.786Z,99414.00
2022-11-03T11:42:02.448Z,99435.88
2022-11-03T11:44:50.351Z,99420.13
2022-11-03T11:47:31.358Z,99397.94
2022-11-03T11:50:19.544Z,99409.41
2022-11-03T11:52:51.161Z,99392.81
2022-11-03T11:55:28.374Z,99387.72
2022-11-03T11:57:58.165Z,99394.66
2022-11-03T12:00:28.918Z,99381.59
2022-11-03T12:02:57.807Z,99358.09
2022-11-03T12:05:28.409Z,99358.06
2022-11-03T12:07:57.597Z,99355.66
2022-11-03T12:10:29.220Z,99362.03
2022-11-03T12:12:58.788Z,99359.38
2022-11-03T12:16:06.123Z,99339.31
2022-11-03T12:18:40.675Z,99314.50
2022-11-03T12:21:14.075Z,99325.44
2022-11-03T12:23:44.317Z,99322.22
2022-11-03T12:26:40.575Z,99295.31
2022-11-03T12:29:09.193Z,99326.47
2022-11-03T12:31:37.271Z,99311.28
2022-11-03T12:34:05.561Z,99312.91
2022-11-03T12:36:33.545Z,99312.91
2022-11-03T12:39:01.530Z,99314.25
2022-11-03T12:41:31.038Z,99357.00
2022-11-03T12:43:58.976Z,99342.84
2022-11-03T12:46:27.578Z,99333.84
2022-11-03T12:48:55.525Z,99346.34
2022-11-03T12:51:24.941Z,99331.41
2022-11-03T12:53:53.661Z,99309.03
2022-11-03T12:56:21.647Z,99314.88
2022-11-03T12:58:51.092Z,99299.69
2022-11-03T13:01:19.232Z,99282.13
2022-11-03T13:03:47.200Z,99298.38
2022-11-03T13:06:15.340Z,99294.91
2022-11-03T13:08:44.728Z,99273.53
2022-11-03T13:11:28.342Z,99262.88
2022-11-03T13:13:58.170Z,99246.34
2022-11-03T13:16:26.143Z,99215.69
2022-11-03T13:18:54.058Z,99233.03
2022-11-03T13:21:22.166Z,99212.25
2022-11-03T13:23:50.050Z,99234.13
2022-11-03T13:26:19.285Z,99237.06
2022-11-03T13:28:47.670Z,99241.59
2022-11-03T13:31:17.048Z,99241.06
2022-11-03T13:33:44.995Z,99236.25
2022-11-03T13:36:13.159Z,99200.03
2022-11-03T13:38:41.144Z,99186.13
2022-11-03T13:41:10.048Z,99219.19
2022-11-03T13:43:37.921Z,99167.47
2022-11-03T13:46:06.117Z,99213.31
2022-11-03T13:51:23.765Z,99186.66
2022-11-03T13:59:28.960Z,99167.44
2022-11-03T14:04:46.781Z,99168.28
2022-11-03T14:07:14.717Z,99165.59
2022-11-03T14:09:42.617Z,99139.19
2022-11-03T14:12:28.402Z,99138.16
2022-11-03T14:14:57.813Z,99153.34
2022-11-03T14:17:27.650Z,99158.94
2022-11-03T14:20:02.564Z,99162.69
2022-11-03T14:22:32.958Z,99149.66
2022-11-03T14:25:01.445Z,99097.97
2022-11-03T14:27:30.057Z,99150.94
2022-11-03T14:29:58.360Z,99137.09
2022-11-03T14:32:26.268Z,99104.06
2022-11-03T14:34:54.682Z,99102.97
2022-11-03T14:37:25.528Z,99096.06
2022-11-03T14:39:55.782Z,99097.38
2022-11-03T14:42:22.993Z,99088.06
2022-11-03T14:47:22.122Z,99110.94
2022-11-03T14:49:50.566Z,99094.94
2022-11-03T14:52:19.241Z,99061.94
2022-11-03T14:54:48.729Z,99046.22
2022-11-03T14:57:16.681Z,99083.50
2022-11-03T14:59:48.016Z,99083.78
2022-11-03T15:02:18.633Z,99080.56
2022-11-03T15:04:46.989Z,99069.38
2022-11-03T15:07:14.995Z,99055.53
2022-11-03T15:09:42.887Z,99062.72
2022-11-03T15:12:12.705Z,99042.72
2022-11-03T15:28:06.971Z,99015.06
2022-11-03T15:30:35.638Z,99050.47
2022-11-03T15:33:03.891Z,98991.63
2022-11-03T15:35:31.888Z,99037.16
2022-11-03T15:38:00.009Z,99008.66
2022-11-03T15:40:31.419Z,98996.69
2022-11-03T15:45:40.331Z,99011.59
2022-11-03T15:48:09.238Z,98998.31
2022-11-03T15:50:42.856Z,99007.09
2022-11-03T15:53:17.099Z,98967.19
2022-11-03T15:56:02.335Z,98981.03
2022-11-03T15:58:34.847Z,98959.22
2022-11-03T16:01:08.196Z,98990.59
2022-11-03T16:03:36.140Z,98983.69
2022-11-03T16:06:08.744Z,98976.78
2022-11-03T16:08:39.304Z,98961.34
2022-11-03T16:11:10.001Z,98952.31
2022-11-03T16:13:46.886Z,98941.91
2022-11-03T16:16:16.628Z,98957.88
2022-11-03T16:18:45.128Z,98960.81
2022-11-03T16:21:13.729Z,98968.28
2022-11-03T16:23:45.751Z,98944.84
2022-11-03T16:26:16.605Z,98915.06
2022-11-03T16:28:55.837Z,98909.22
2022-11-03T16:31:29.137Z,98928.88
2022-11-03T16:34:00.224Z,98916.09
2022-11-03T16:36:28.767Z,98919.28
2022-11-03T16:38:57.940Z,98932.56
2022-11-03T16:41:26.254Z,98906.50
2022-11-03T16:43:56.657Z,98900.38
2022-11-03T16:46:26.204Z,98921.41
2022-11-03T16:48:56.470Z,98920.38
2022-11-03T16:51:25.208Z,98951.78
2022-11-03T16:53:56.736Z,98959.47
2022-11-03T16:56:25.652Z,98968.28
2022-11-03T16:58:55.543Z,98945.16
2022-11-03T17:01:28.843Z,98948.59
2022-11-03T17:03:56.959Z,98947.53
2022-11-03T17:06:25.540Z,98910.81
2022-11-03T17:08:56.029Z,98910.56
2022-11-03T17:11:37.416Z,98935.00
2022-11-03T17:14:07.753Z,98954.16
2022-11-03T17:16:45.659Z,98951.78
2022-11-03T17:19:13.976Z,98930.75
2022-11-03T17:21:48.631Z,98948.59
2022-11-03T17:24:17.098Z,98923.06
2022-11-03T17:27:11.886Z,98973.34
2022-11-03T17:29:43.429Z,98949.13
2022-11-03T17:32:24.616Z,98918.56
2022-11-03T17:34:56.367Z,98933.44
2022-11-03T17:37:26.844Z,98966.44
2022-11-03T17:39:55.326Z,98951.28
2022-11-03T17:42:24.936Z,98977.59
2022-11-03T17:44:55.350Z,98931.03
2022-11-03T17:47:26.390Z,98986.69
2022-11-03T17:49:55.079Z,98992.28
2022-11-03T17:52:28.198Z,98972.31
2022-11-03T17:54:59.681Z,98997.59
2022-11-03T17:57:31.687Z,98996.53
2022-11-03T18:00:01.585Z,98983.22
2022-11-03T18:02:37.965Z,99006.63
2022-11-03T18:05:22.151Z,99000.78
2022-11-03T18:07:54.182Z,98935.31
2022-11-03T18:10:23.366Z,98933.16
2022-11-03T18:13:10.834Z,98931.03
2022-11-03T18:15:41.657Z,98923.84
2022-11-03T18:18:20.773Z,98934.47
2022-11-03T18:20:53.687Z,98928.91
2022-11-03T18:23:24.378Z,98924.91
2022-11-03T18:25:53.472Z,98955.56
2022-11-03T18:28:21.581Z,98937.44
2022-11-03T18:30:53.292Z,98937.41
2022-11-03T18:33:27.711Z,98995.19
2022-11-03T18:35:56.259Z,98928.34
2022-11-03T18:38:26.926Z,98972.03
2022-11-03T18:40:55.143Z,98962.97
2022-11-03T18:43:28.364Z,98951.78
2022-11-03T18:45:56.928Z,99006.41
2022-11-03T18:48:26.809Z,98941.97
2022-11-03T18:50:56.899Z,98951.31
2022-11-03T18:53:31.979Z,98942.72
2022-11-03T18:56:02.590Z,98959.78
2022-11-03T18:58:31.524Z,98941.13
2022-11-03T19:01:00.102Z,98933.66
2022-11-03T19:03:35.466Z,98957.13
2022-11-03T19:06:04.117Z,98972.31
2022-11-03T19:08:34.474Z,98941.13
2022-11-03T19:11:05.220Z,98943.78
2022-11-03T19:13:40.619Z,98932.09
2022-11-03T19:16:14.016Z,99002.38
2022-11-03T19:18:46.957Z,98978.44
2022-11-03T19:21:18.904Z,98945.66
2022-11-03T19:23:48.140Z,98961.31
2022-11-03T19:26:23.192Z,98946.69
2022-11-03T19:28:57.450Z,98965.56
2022-11-03T19:31:32.391Z,98981.28
2022-11-03T19:34:02.772Z,99031.09
2022-11-03T19:36:32.632Z,98989.00
2022-11-03T19:39:01.691Z,98948.28
2022-11-03T19:41:47.537Z,99003.09
2022-11-03T19:44:15.775Z,99033.72
2022-11-03T19:46:44.349Z,99015.59
2022-11-03T19:49:16.056Z,98980.38
2022-11-03T19:51:44.606Z,99059.22
2022-11-03T19:54:17.750Z,99008.00
2022-11-03T19:56:47.185Z,99035.97
2022-11-03T19:59:17.171Z,99009.84
2022-11-03T20:01:45.783Z,99015.22
2022-11-03T20:04:16.334Z,99006.38
2022-11-03T20:06:44.311Z,99048.25
2022-11-03T20:09:19.230Z,99005.06
2022-11-03T20:11:49.482Z,99030.09
2022-11-03T20:14:27.593Z,99023.44
2022-11-03T20:16:59.358Z,99042.59
2022-11-03T20:19:32.423Z,99025.00
2022-11-03T20:22:01.520Z,99027.63
2022-11-03T20:24:30.345Z,99099.09
2022-11-03T20:26:58.778Z,99048.91
2022-11-03T20:29:29.620Z,99060.38
2022-11-03T20:32:01.914Z,99049.94
2022-11-03T20:34:31.411Z,99075.03
2022-11-03T20:37:04.565Z,99086.16
2022-11-03T20:39:34.212Z,99102.91
2022-11-03T20:42:02.184Z,99132.97
2022-11-03T20:44:30.740Z,99151.59
2022-11-03T20:46:58.737Z,99166.47
2022-11-03T20:49:26.785Z,99108.06
2022-11-03T20:51:56.493Z,99143.19
2022-11-03T20:54:24.502Z,99141.88
2022-11-03T20:56:52.492Z,99134.66
2022-11-03T20:59:23.273Z,99121.53
2022-11-03T21:01:52.255Z,99152.47
2022-11-03T21:04:22.714Z,99170.63
2022-11-03T21:06:51.100Z,99176.19
2022-11-03T21:09:21.115Z,99163.84
2022-11-03T21:11:49.390Z,99140.34
2022-11-03T21:14:22.974Z,99163.09
2022-11-03T21:17:08.279Z,99137.34
2022-11-03T21:19:56.470Z,99113.78
2022-11-03T21:25:18.896Z,99210.84
2022-11-03T21:27:50.043Z,99177.66
2022-11-03T21:30:18.809Z,99206.00
2022-11-03T21:32:48.535Z,99158.13
2022-11-03T21:35:19.958Z,99200.03
2022-11-03T21:37:48.838Z,99231.56
2022-11-03T21:40:18.889Z,99154.72
2022-11-03T21:43:05.355Z,99152.28
2022-11-03T21:45:34.491Z,99195.53
2022-11-03T21:48:20.514Z,99195.59
2022-11-03T21:50:49.729Z,99217.75
2022-11-03T21:53:17.843Z,99230.28
2022-11-03T21:55:49.764Z,99170.69
2022-11-03T21:58:17.878Z,99222.50
2022-11-03T22:00:47.233Z,99173.34
2022-11-03T22:03:15.962Z,99175.47
2022-11-03T22:05:44.103Z,99193.31
2022-11-03T22:08:12.288Z,99158.88
2022-11-03T22:10:41.741Z,99203.19
2022-11-03T22:13:12.157Z,99232.09
2022-11-03T22:15:58.385Z,99237.34
2022-11-03T22:18:27.242Z,99230.94
2022-11-03T22:21:15.814Z,99221.72
2022-11-03T22:24:01.607Z,99239.63
2022-11-03T22:26:47.566Z,99266.72
2022-11-03T22:29:34.382Z,99283.72
2022-11-03T22:32:02.732Z,99292.19
2022-11-03T22:34:48.544Z,99246.69
2022-11-03T22:37:16.831Z,99291.63
2022-11-03T22:40:02.801Z,99275.28
2022-11-03T22:42:49.813Z,99253.38
2022-11-03T22:45:36.658Z,99266.13
2022-11-03T22:48:05.396Z,99272.56
2022-11-03T22:50:34.375Z,99253.50
2022-11-03T22:53:26.132Z,99254.13
2022-11-03T22:55:53.875Z,99221.16
2022-11-03T22:58:25.327Z,99256.19
2022-11-03T23:00:58.040Z,99206.56
2022-11-03T23:03:26.187Z,99205.97
2022-11-03T23:05:54.451Z,99257.00
2022-11-03T23:10:55.604Z,99252.16
2022-11-03T23:13:23.638Z,99242.22
2022-11-03T23:15:52.181Z,99269.44
2022-11-03T23:18:39.729Z,99285.47
2022-11-03T23:21:09.171Z,99265.13
2022-11-03T23:23:55.250Z,99258.91
2022-11-03T23:26:25.075Z,99288.59
2022-11-03T23:28:55.684Z,99235.31
2022-11-03T23:31:23.764Z,99251.88
2022-11-03T23:33:53.687Z,99274.56
2022-11-03T23:36:23.772Z,99265.88
2022-11-03T23:38:54.706Z,99249.38
2022-11-03T23:41:25.868Z,99256.47
2022-11-03T23:43:56.826Z,99260.44
2022-11-03T23:46:44.001Z,99299.19
2022-11-03T23:49:14.313Z,99279.09
2022-11-03T23:51:43.721Z,99238.06
2022-11-03T23:54:13.672Z,99265.69
2022-11-03T23:57:00.949Z,99272.53
2022-11-03T23:59:29.909Z,99270.13
